createdAt,value
2023-04-02T00:01:52.962Z,2.53
2023-04-02T00:07:31.149Z,2.45
2023-04-02T00:12:34.637Z,2.38
2023-04-02T00:17:38.255Z,2.37
2023-04-02T00:22:45.280Z,2.38
2023-04-02T00:27:49.096Z,2.39
2023-04-02T00:32:53.031Z,2.42
2023-04-02T00:37:57.957Z,2.43
2023-04-02T00:43:04.673Z,2.47
2023-04-02T00:48:25.573Z,2.46
2023-04-02T00:53:31.244Z,2.46
2023-04-02T00:58:37.004Z,2.51
2023-04-02T01:03:41.545Z,2.52
2023-04-02T01:09:21.613Z,2.56
2023-04-02T01:14:43.353Z,2.57
2023-04-02T01:20:01.212Z,2.58
2023-04-02T01:25:06.708Z,2.62
2023-04-02T01:30:12.945Z,2.66
2023-04-02T01:35:16.765Z,2.69
2023-04-02T01:40:26.022Z,2.76
2023-04-02T01:45:29.945Z,2.80
2023-04-02T01:50:39.407Z,2.83
2023-04-02T01:55:57.050Z,2.88
2023-04-02T02:01:04.415Z,2.91
2023-04-02T02:06:13.905Z,2.94
2023-04-02T02:11:23.140Z,2.97
2023-04-02T02:16:29.406Z,3.02
2023-04-02T02:21:43.817Z,3.05
2023-04-02T02:26:51.227Z,3.08
2023-04-02T02:31:58.191Z,3.09
2023-04-02T02:37:35.963Z,3.13
2023-04-02T02:42:47.229Z,3.17
2023-04-02T02:47:53.231Z,3.20
2023-04-02T02:52:59.480Z,3.19
2023-04-02T02:58:10.473Z,3.19
2023-04-02T03:03:20.318Z,3.14
2023-04-02T03:08:37.087Z,3.09
2023-04-02T03:13:46.914Z,3.11
2023-04-02T03:19:08.864Z,3.09
2023-04-02T03:24:15.054Z,3.05
2023-04-02T03:29:28.342Z,3.04
2023-04-02T03:34:37.340Z,3.02
2023-04-02T03:39:59.086Z,2.98
2023-04-02T03:45:02.393Z,2.94
2023-04-02T03:50:14.713Z,2.88
2023-04-02T03:55:31.568Z,2.78
2023-04-02T04:00:37.615Z,2.69
2023-04-02T04:05:52.094Z,2.58
2023-04-02T04:10:58.193Z,2.49
2023-04-02T04:16:08.466Z,2.41
2023-04-02T04:21:37.939Z,2.34
2023-04-02T04:27:18.761Z,2.30
2023-04-02T04:32:34.430Z,2.32
2023-04-02T04:37:43.134Z,2.35
2023-04-02T04:42:49.903Z,2.42
2023-04-02T04:48:09.371Z,2.49
2023-04-02T04:53:24.936Z,2.59
2023-04-02T04:58:45.996Z,2.61
2023-04-02T05:03:55.052Z,2.69
2023-04-02T05:09:07.065Z,2.75
2023-04-02T05:14:25.110Z,2.79
2023-04-02T05:19:46.659Z,2.82
2023-04-02T05:25:27.501Z,2.85
2023-04-02T05:30:47.140Z,2.89
2023-04-02T06:06:42.318Z,3.37
2023-04-02T06:11:57.142Z,3.44
2023-04-02T06:23:40.790Z,3.43
2023-04-02T06:29:02.815Z,3.40
2023-04-02T06:34:13.471Z,3.36
2023-04-02T06:39:23.578Z,3.37
2023-04-02T06:44:32.492Z,3.43
2023-04-02T06:49:45.627Z,3.49
2023-04-02T06:54:48.975Z,3.54
2023-04-02T06:59:52.765Z,3.57
2023-04-02T07:05:03.358Z,3.55
2023-04-02T07:10:09.402Z,3.54
2023-04-02T07:15:24.321Z,3.54
2023-04-02T07:20:38.557Z,3.57
2023-04-02T07:25:42.177Z,3.61
2023-04-02T07:30:46.410Z,3.68
2023-04-02T07:35:50.658Z,3.71
2023-04-02T07:40:54.002Z,3.77
2023-04-02T07:45:57.470Z,3.83
2023-04-02T07:51:03.418Z,3.90
2023-04-02T07:56:07.976Z,3.95
2023-04-02T08:01:26.140Z,3.99
2023-04-02T08:06:30.582Z,4.11
2023-04-02T08:11:33.684Z,4.26
2023-04-02T08:16:52.134Z,4.32
2023-04-02T08:21:56.702Z,4.35
2023-04-02T08:27:00.027Z,4.43
2023-04-02T08:32:03.726Z,4.48
2023-04-02T08:37:07.138Z,4.46
2023-04-02T08:42:13.833Z,4.51
2023-04-02T08:47:20.730Z,4.57
2023-04-02T08:52:29.069Z,4.56
2023-04-02T08:57:56.835Z,4.56
2023-04-02T09:03:11.249Z,4.60
2023-04-02T09:08:19.528Z,4.56
2023-04-02T09:13:28.864Z,4.52
2023-04-02T09:18:33.636Z,4.49
2023-04-02T09:23:37.145Z,4.53
2023-04-02T09:28:41.991Z,4.59
2023-04-02T09:33:49.235Z,4.65
2023-04-02T09:39:20.671Z,4.72
2023-04-02T09:44:31.477Z,4.79
2023-04-02T09:49:38.204Z,4.85
2023-04-02T09:54:44.637Z,4.91
2023-04-02T09:59:48.157Z,4.99
2023-04-02T10:04:52.066Z,5.10
2023-04-02T10:10:00.642Z,5.22
2023-04-02T10:15:04.967Z,5.39
2023-04-02T10:20:29.344Z,5.54
2023-04-02T10:25:42.756Z,5.71
2023-04-02T10:31:08.547Z,5.94
2023-04-02T10:36:41.336Z,6.27
2023-04-02T10:41:47.811Z,6.73
2023-04-02T10:47:21.952Z,6.96
2023-04-02T10:52:35.703Z,6.99
2023-04-02T10:57:43.661Z,7.00
2023-04-02T11:03:31.925Z,7.12
2023-04-02T11:08:46.970Z,7.42
2023-04-02T11:13:56.733Z,7.55
2023-04-02T11:19:15.098Z,7.76
2023-04-02T11:24:24.347Z,7.83
2023-04-02T11:29:31.039Z,7.86
2023-04-02T11:35:02.922Z,7.92
2023-04-02T11:40:12.034Z,8.07
2023-04-02T11:45:22.165Z,8.24
2023-04-02T11:50:31.907Z,8.13
2023-04-02T11:55:36.724Z,8.10
2023-04-02T12:01:18.767Z,8.05
2023-04-02T12:06:35.383Z,7.95
2023-04-02T12:11:41.011Z,7.96
2023-04-02T12:16:44.640Z,8.16
2023-04-02T12:21:48.795Z,8.33
2023-04-02T12:27:17.423Z,8.62
2023-04-02T12:32:31.261Z,8.63
2023-04-02T12:37:34.871Z,8.41
2023-04-02T12:42:38.391Z,8.30
2023-04-02T12:47:45.661Z,8.44
2023-04-02T12:52:55.199Z,8.61
2023-04-02T12:58:00.101Z,8.58
2023-04-02T13:03:06.322Z,8.55
2023-04-02T13:08:23.007Z,8.52
2023-04-02T13:13:34.920Z,8.46
2023-04-02T13:18:39.055Z,8.28
2023-04-02T13:23:42.971Z,8.21
2023-04-02T13:29:02.271Z,8.19
2023-04-02T13:34:05.670Z,8.14
2023-04-02T13:39:09.287Z,8.14
2023-04-02T13:44:33.213Z,8.29
2023-04-02T13:49:36.595Z,8.34
2023-04-02T13:54:51.986Z,8.26
2023-04-02T13:59:55.812Z,8.22
2023-04-02T14:05:14.391Z,8.31
2023-04-02T14:10:34.389Z,8.42
2023-04-02T14:15:38.137Z,8.43
2023-04-02T14:20:44.495Z,8.29
2023-04-02T14:26:14.113Z,8.21
2023-04-02T14:31:35.476Z,8.27
2023-04-02T14:37:07.162Z,8.52
2023-04-02T14:42:16.887Z,8.76
2023-04-02T14:47:29.834Z,8.81
2023-04-02T14:52:35.485Z,8.68
2023-04-02T14:57:45.046Z,8.71
2023-04-02T15:03:04.530Z,9.11
2023-04-02T15:08:15.949Z,9.69
2023-04-02T15:13:25.565Z,10.04
2023-04-02T15:18:33.212Z,9.98
2023-04-02T15:24:04.057Z,9.70
2023-04-02T15:29:28.770Z,9.39
2023-04-02T15:35:21.423Z,9.03
2023-04-02T15:40:36.328Z,8.63
2023-04-02T15:46:01.398Z,8.41
2023-04-02T15:51:23.189Z,8.35
2023-04-02T15:56:35.211Z,8.32
2023-04-02T16:02:02.985Z,8.18
2023-04-02T16:07:31.285Z,8.09
2023-04-02T16:12:37.268Z,8.22
2023-04-02T16:17:47.254Z,9.27
2023-04-02T16:23:24.975Z,12.63
2023-04-02T16:28:36.033Z,13.96
2023-04-02T16:34:34.130Z,16.55
2023-04-02T16:49:25.772Z,18.53
2023-04-02T16:55:23.694Z,17.90
2023-04-02T17:00:38.159Z,16.88
2023-04-02T17:05:59.961Z,15.79
2023-04-02T17:11:07.079Z,13.71
2023-04-02T17:16:28.872Z,11.15
2023-04-02T17:21:32.946Z,9.32
2023-04-02T17:26:38.136Z,8.17
2023-04-02T17:31:46.127Z,7.40
2023-04-02T17:36:56.262Z,6.76
2023-04-02T17:42:20.767Z,6.26
2023-04-02T17:47:35.160Z,5.87
2023-04-02T17:52:44.168Z,5.59
2023-04-02T18:05:15.802Z,5.10
2023-04-02T18:11:14.842Z,4.91
2023-04-02T18:16:30.032Z,4.75
2023-04-02T18:21:46.669Z,4.59
2023-04-02T18:27:11.142Z,4.50
2023-04-02T18:32:59.145Z,4.38
2023-04-02T18:38:20.979Z,4.23
2023-04-02T18:43:43.726Z,4.20
2023-04-02T18:49:00.441Z,4.13
2023-04-02T18:54:13.886Z,4.02
2023-04-02T18:59:42.181Z,3.95
2023-04-02T19:04:53.618Z,3.86
2023-04-02T19:10:09.599Z,3.79
2023-04-02T19:15:20.408Z,3.70
2023-04-02T19:20:53.276Z,3.53
2023-04-02T19:26:08.984Z,3.53
2023-04-02T19:31:16.214Z,3.48
2023-04-02T19:36:24.113Z,3.42
2023-04-02T19:41:44.312Z,3.35
2023-04-02T19:46:48.148Z,3.34
2023-04-02T19:51:52.180Z,3.27
2023-04-02T19:56:55.987Z,3.22
2023-04-02T20:01:59.495Z,3.18
2023-04-02T20:07:03.176Z,3.13
2023-04-02T20:12:06.731Z,3.07
2023-04-02T20:17:10.049Z,3.06
2023-04-02T20:22:13.360Z,3.02
2023-04-02T20:27:17.175Z,2.97
2023-04-02T20:32:20.561Z,2.88
2023-04-02T20:37:24.248Z,2.84
2023-04-02T20:42:27.929Z,2.76
2023-04-02T20:47:31.266Z,2.68
2023-04-02T20:52:36.092Z,2.63
2023-04-02T20:57:39.914Z,2.62
2023-04-02T21:02:43.238Z,2.58
2023-04-02T21:07:48.887Z,2.53
2023-04-02T21:12:52.200Z,2.48
2023-04-02T21:17:55.720Z,2.48
2023-04-02T21:22:59.442Z,2.46
2023-04-02T21:28:02.845Z,2.43
2023-04-02T21:33:06.802Z,2.42
2023-04-02T21:38:10.183Z,2.29
2023-04-02T21:43:13.691Z,2.27
2023-04-02T21:48:17.208Z,2.14
2023-04-02T21:53:20.734Z,2.14
2023-04-02T21:58:24.138Z,2.13
2023-04-02T22:03:31.737Z,2.10
2023-04-02T22:08:36.493Z,2.05
2023-04-02T22:13:40.035Z,2.04
2023-04-02T22:18:44.512Z,1.92
2023-04-02T22:23:49.699Z,1.95
2023-04-02T22:28:53.322Z,1.91
2023-04-02T22:33:58.061Z,1.78
2023-04-02T22:39:05.690Z,1.84
2023-04-02T22:44:14.584Z,1.80
2023-04-02T22:49:19.673Z,1.75
2023-04-02T22:54:23.185Z,1.75
2023-04-02T22:59:26.906Z,1.74
2023-04-02T23:04:30.318Z,1.68
2023-04-02T23:09:33.832Z,1.68
2023-04-02T23:14:37.249Z,1.63
2023-04-02T23:19:40.975Z,1.61
2023-04-02T23:24:44.383Z,1.54
2023-04-02T23:29:49.028Z,1.47
2023-04-02T23:34:52.439Z,1.41
2023-04-02T23:39:55.953Z,1.39
2023-04-02T23:44:59.572Z,1.38
2023-04-02T23:50:03.409Z,1.39
2023-04-02T23:55:07.332Z,1.34
